TFM - Tactical Decision Aid (Experimental) INFO Settings
ID: Runway Winds: CIG/VIS Threshold: METAR Board: Map:

KIAD - Washington-Dulles Intl

Updated at: 0352 UTC 23 Apr 2018
Latest TAF at: 2333 UTC 22 Apr 2018

TAF Board

Time0252Z23/04Z23/05Z23/06Z23/07Z23/08Z23/09Z23/10Z23/11Z23/12Z23/13Z23/14Z23/15Z23/16Z
TypeOBSPRVLPRVLPRVLPRVLPRVLPRVLPRVLPRVLPRVLPRVLPRVLPRVLPRVL
VIS10>6>6>6>6>6>6>6>6>6>6>6>6>6
CIG65250250250250250----------------
CoverOVCBKNBKNBKNBKNBKNSCTSCTSCTSCTSCTSCTSCTSCT
FltCatVFRVFRVFRVFRVFRVFRVFRVFRVFRVFRVFRVFRVFRVFR
WX----------------------------
WDir130110110110110110130130130130130130130130
WSpd5777774444441010
WGst----------------------------
TAF
KIAD 222333Z 2300/2406 11007KT P6SM SCT060 BKN250
  FM230900 13004KT P6SM FEW060 SCT250
  FM231500 13010KT P6SM SCT250
  FM240500 13004KT P6SM SCT120 BKN250


METAR
KIAD 230252Z 13005KT 10SM OVC065 12/02 A3038 RMK AO2 SLP286 T01220017 51017

TAF/METAR Board Legend

Potential Impact
  None Marginal Slight Moderate High
Visibility (sm) >5 3≤X≤5 1≤X<3 0.5≤X<1 <0.5
Ceiling (100 ft) >30 10≤X≤30 4≤X<10 2≤X<4 <2
Wind Speed (kt) <10 10≤X<20 20≤X<30 ≥30
Wind Gust (kt) <15 15≤X<25 25≤X<35 ≥35
Weather No Wx Reported VCTS -TS,-FZRA TS,FZRA +TS,+FZRA




Page loaded:  03:52 UTC  |   08:52 PM Pacific  |   09:52 PM Mountain  |   10:52 PM Central  |   11:52 PM Eastern